createdAt,value
2022-10-02T00:10:04.086Z,1514
2022-10-02T00:25:04.080Z,1509
2022-10-02T00:40:03.134Z,1500
2022-10-02T00:55:02.349Z,1492
2022-10-02T01:10:02.137Z,1480
2022-10-02T01:25:03.564Z,1471
2022-10-02T01:40:04.234Z,1464
2022-10-02T01:55:03.195Z,1447
2022-10-02T02:10:06.289Z,1435
2022-10-02T02:25:05.598Z,1422
2022-10-02T02:40:03.442Z,1410
2022-10-02T02:55:04.247Z,1390
2022-10-02T03:10:02.278Z,1392
2022-10-02T03:25:02.134Z,1388
2022-10-02T03:40:02.553Z,1379
2022-10-02T03:55:04.337Z,1368
2022-10-02T04:10:03.282Z,1362
2022-10-02T04:25:05.628Z,1349
2022-10-02T04:40:02.484Z,1334
2022-10-02T04:55:05.377Z,1338
2022-10-02T05:10:03.165Z,1341
2022-10-02T05:25:05.489Z,1349
2022-10-02T05:40:06.560Z,1356
2022-10-02T05:55:03.320Z,1384
2022-10-02T06:10:03.548Z,1373
2022-10-02T06:25:02.254Z,1366
2022-10-02T06:40:06.590Z,1365
2022-10-02T06:55:05.267Z,1376
2022-10-02T07:10:04.622Z,1394
2022-10-02T07:25:02.577Z,1442
2022-10-02T07:45:05.503Z,1513
2022-10-02T08:00:05.522Z,1581
2022-10-02T08:15:06.538Z,1645
2022-10-02T08:30:04.497Z,1585
2022-10-02T08:45:06.527Z,1452
2022-10-02T09:05:03.148Z,1273
2022-10-02T09:20:03.421Z,1088
2022-10-02T09:35:06.149Z,891
2022-10-02T09:50:05.545Z,790
2022-10-02T10:05:03.545Z,778
2022-10-02T10:20:04.264Z,817
2022-10-02T10:35:03.446Z,876
2022-10-02T10:50:03.112Z,962
2022-10-02T11:20:06.298Z,1182
2022-10-02T11:35:02.428Z,1285
2022-10-02T11:50:02.097Z,1382
2022-10-02T12:05:02.349Z,1466
2022-10-02T12:20:02.155Z,1554
2022-10-02T12:35:06.460Z,1643
2022-10-02T12:50:05.121Z,1724
2022-10-02T13:05:03.546Z,1796
2022-10-02T13:20:03.132Z,1875
2022-10-02T13:35:05.340Z,1931
2022-10-02T13:50:03.397Z,1982
2022-10-02T14:05:02.448Z,2020
2022-10-02T14:20:05.599Z,2052
2022-10-02T14:35:02.395Z,2072
2022-10-02T14:50:04.254Z,2107
2022-10-02T15:05:06.378Z,2136
2022-10-02T15:20:05.142Z,2169
2022-10-02T15:35:04.091Z,2208
2022-10-02T15:50:05.144Z,2205
2022-10-02T16:05:05.472Z,2090
2022-10-02T16:20:02.339Z,1973
2022-10-02T16:35:03.571Z,1863
2022-10-02T16:50:04.102Z,1762
2022-10-02T17:05:02.207Z,1713
2022-10-02T17:20:05.585Z,1769
2022-10-02T17:35:03.467Z,1837
2022-10-02T17:50:05.569Z,1906
2022-10-02T18:05:06.437Z,1968
2022-10-02T18:20:05.254Z,2021
2022-10-02T18:35:05.322Z,2076
2022-10-02T18:50:02.122Z,2115
2022-10-02T19:05:03.494Z,2140
2022-10-02T19:20:06.123Z,2157
2022-10-02T19:35:06.269Z,2169
2022-10-02T19:50:03.499Z,2172
2022-10-02T20:05:02.595Z,2178
2022-10-02T20:35:02.489Z,2198
2022-10-02T20:50:02.377Z,2205
2022-10-02T21:05:04.043Z,2202
2022-10-02T21:20:06.253Z,2187
2022-10-02T21:35:03.687Z,2154
2022-10-02T21:50:06.102Z,2120
2022-10-02T22:05:06.290Z,2079
2022-10-02T22:20:02.190Z,2042
2022-10-02T22:35:06.391Z,2010
2022-10-02T22:50:04.727Z,1991
2022-10-02T23:05:05.190Z,1973
2022-10-02T23:20:06.512Z,1955
2022-10-02T23:35:04.543Z,1936
2022-10-02T23:50:06.560Z,1913
